Time,TemperatureF,DewpointF,PressureIn,WindDirection,WindDirectionDegrees,WindSpeedMPH,WindSpeedGustMPH,Humidity,HourlyPrecipIn,Conditions,Clouds,dailyrainin,SoftwareType,DateUTC
2013-04-17 00:00:00,56.2,52.4,29.95,ENE,73,1.0,2.0,87,0.00,,,0.00,Wunderground v.1.15,2013-04-17 05:00:00,
2013-04-17 00:06:00,56.1,52.3,29.95,NE,56,3.0,3.0,87,0.00,,,0.00,Wunderground v.1.15,2013-04-17 05:06:00,
2013-04-17 00:12:00,55.9,52.1,29.95,ENE,76,1.0,2.0,87,0.00,,,0.00,Wunderground v.1.15,2013-04-17 05:12:00,
2013-04-17 00:17:00,55.8,52.0,29.95,ESE,112,0.0,2.0,87,0.00,,,0.00,Wunderground v.1.15,2013-04-17 05:17:00,
2013-04-17 00:23:00,55.7,51.9,29.96,NE,36,2.0,2.0,87,0.00,,,0.00,Wunderground v.1.15,2013-04-17 05:23:00,
2013-04-17 00:28:00,55.6,52.1,29.95,East,79,1.0,2.0,88,0.00,,,0.00,Wunderground v.1.15,2013-04-17 05:28:00,
2013-04-17 00:33:00,55.5,52.0,29.96,North,11,1.0,2.0,88,0.00,,,0.00,Wunderground v.1.15,2013-04-17 05:33:00,
2013-04-17 00:38:00,55.4,51.9,29.96,NE,47,0.0,2.0,88,0.00,,,0.00,Wunderground v.1.15,2013-04-17 05:38:00,
2013-04-17 00:43:00,55.4,51.9,29.96,ENE,64,1.0,1.0,88,0.00,,,0.00,Wunderground v.1.15,2013-04-17 05:43:00,
2013-04-17 00:48:00,55.3,51.8,29.96,ENE,72,1.0,2.0,88,0.00,,,0.00,Wunderground v.1.15,2013-04-17 05:48:00,
2013-04-17 00:53:00,55.1,51.6,29.96,NE,46,1.0,1.0,88,0.00,,,0.00,Wunderground v.1.15,2013-04-17 05:53:00,
2013-04-17 01:35:00,54.4,51.2,29.95,NE,54,1.0,1.0,89,0.00,,,0.00,Wunderground v.1.15,2013-04-17 06:35:00,
2013-04-17 01:40:00,54.2,51.0,29.95,East,91,0.0,1.0,89,0.00,,,0.00,Wunderground v.1.15,2013-04-17 06:40:00,
2013-04-17 01:45:00,54.1,50.9,29.95,ENE,63,2.0,2.0,89,0.00,,,0.00,Wunderground v.1.15,2013-04-17 06:45:00,
2013-04-17 01:51:00,54.0,50.8,29.95,ENE,63,1.0,2.0,89,0.00,,,0.00,Wunderground v.1.15,2013-04-17 06:51:00,
2013-04-17 01:56:00,54.0,50.8,29.95,East,96,1.0,2.0,89,0.00,,,0.00,Wunderground v.1.15,2013-04-17 06:56:00,
2013-04-17 02:01:00,53.9,50.7,29.94,ENE,60,1.0,2.0,89,0.00,,,0.00,Wunderground v.1.15,2013-04-17 07:01:00,
2013-04-17 02:06:00,53.8,50.9,29.95,East,90,1.0,3.0,90,0.00,,,0.00,Wunderground v.1.15,2013-04-17 07:06:00,
2013-04-17 02:11:00,53.8,50.9,29.95,NE,51,2.0,3.0,90,0.00,,,0.00,Wunderground v.1.15,2013-04-17 07:11:00,
2013-04-17 02:17:00,53.8,50.9,29.95,East,84,0.0,3.0,90,0.00,,,0.00,Wunderground v.1.15,2013-04-17 07:17:00,
2013-04-17 02:21:00,53.8,50.9,29.95,East,88,1.0,2.0,90,0.00,,,0.00,Wunderground v.1.15,2013-04-17 07:21:00,
2013-04-17 02:27:00,53.7,50.8,29.94,ENE,70,1.0,3.0,90,0.00,,,0.00,Wunderground v.1.15,2013-04-17 07:27:00,
2013-04-17 02:32:00,53.6,50.7,29.94,East,90,1.0,1.0,90,0.00,,,0.00,Wunderground v.1.15,2013-04-17 07:32:00,
2013-04-17 02:37:00,53.6,50.7,29.94,East,91,3.0,4.0,90,0.00,,,0.00,Wunderground v.1.15,2013-04-17 07:37:00,
2013-04-17 02:42:00,53.6,50.7,29.94,ENE,78,2.0,2.0,90,0.00,,,0.00,Wunderground v.1.15,2013-04-17 07:42:00,
2013-04-17 02:47:00,53.5,50.6,29.94,ESE,120,1.0,2.0,90,0.00,,,0.00,Wunderground v.1.15,2013-04-17 07:47:00,
2013-04-17 02:52:00,53.5,50.6,29.94,East,88,1.0,1.0,90,0.00,,,0.00,Wunderground v.1.15,2013-04-17 07:52:00,
2013-04-17 02:57:00,53.5,50.6,29.94,East,88,0.0,1.0,90,0.00,,,0.00,Wunderground v.1.15,2013-04-17 07:57:00,
2013-04-17 03:02:00,53.4,50.5,29.94,East,100,1.0,1.0,90,0.00,,,0.00,Wunderground v.1.15,2013-04-17 08:02:00,
2013-04-17 03:07:00,53.3,50.7,29.94,East,100,0.0,1.0,91,0.00,,,0.00,Wunderground v.1.15,2013-04-17 08:07:00,
2013-04-17 03:12:00,53.3,50.7,29.94,ESE,120,1.0,3.0,91,0.00,,,0.00,Wunderground v.1.15,2013-04-17 08:12:00,
2013-04-17 03:17:00,53.2,50.6,29.94,East,92,1.0,3.0,91,0.00,,,0.00,Wunderground v.1.15,2013-04-17 08:17:00,
2013-04-17 03:22:00,53.2,50.6,29.94,East,81,2.0,3.0,91,0.00,,,0.00,Wunderground v.1.15,2013-04-17 08:22:00,
2013-04-17 03:27:00,53.3,50.7,29.94,ENE,73,3.0,3.0,91,0.00,,,0.00,Wunderground v.1.15,2013-04-17 08:27:00,
2013-04-17 03:32:00,53.3,50.7,29.94,ENE,73,0.0,2.0,91,0.00,,,0.00,Wunderground v.1.15,2013-04-17 08:32:00,
2013-04-17 03:37:00,53.3,50.7,29.93,ENE,70,1.0,2.0,91,0.00,,,0.00,Wunderground v.1.15,2013-04-17 08:37:00,
2013-04-17 03:42:00,53.3,50.7,29.93,ENE,67,1.0,2.0,91,0.00,,,0.00,Wunderground v.1.15,2013-04-17 08:42:00,
2013-04-17 03:47:00,53.3,50.7,29.93,ENE,68,0.0,2.0,91,0.00,,,0.00,Wunderground v.1.15,2013-04-17 08:47:00,
2013-04-17 03:52:00,53.3,50.7,29.93,ESE,105,1.0,1.0,91,0.00,,,0.00,Wunderground v.1.15,2013-04-17 08:52:00,
2013-04-17 03:57:00,53.2,50.6,29.93,East,94,1.0,2.0,91,0.00,,,0.00,Wunderground v.1.15,2013-04-17 08:57:00,
2013-04-17 04:02:00,53.2,50.6,29.93,East,86,2.0,4.0,91,0.00,,,0.00,Wunderground v.1.15,2013-04-17 09:02:00,
2013-04-17 04:07:00,53.2,50.6,29.93,ENE,73,1.0,4.0,91,0.00,,,0.00,Wunderground v.1.15,2013-04-17 09:07:00,
2013-04-17 04:12:00,53.1,50.5,29.93,ENE,74,1.0,2.0,91,0.00,,,0.00,Wunderground v.1.15,2013-04-17 09:12:00,
2013-04-17 04:17:00,53.2,50.6,29.93,East,90,1.0,2.0,91,0.00,,,0.00,Wunderground v.1.15,2013-04-17 09:17:00,
2013-04-17 04:22:00,53.0,50.4,29.93,ENE,75,0.0,1.0,91,0.00,,,0.00,Wunderground v.1.15,2013-04-17 09:22:00,
2013-04-17 04:27:00,53.0,50.4,29.93,East,98,3.0,3.0,91,0.00,,,0.00,Wunderground v.1.15,2013-04-17 09:27:00,
2013-04-17 04:32:00,52.9,50.3,29.93,East,79,1.0,2.0,91,0.00,,,0.00,Wunderground v.1.15,2013-04-17 09:32:00,
2013-04-17 04:37:00,52.9,50.3,29.93,East,83,1.0,2.0,91,0.00,,,0.00,Wunderground v.1.15,2013-04-17 09:37:00,
2013-04-17 04:42:00,53.0,50.4,29.93,ENE,63,3.0,3.0,91,0.00,,,0.00,Wunderground v.1.15,2013-04-17 09:42:00,
2013-04-17 04:47:00,53.0,50.4,29.92,ENE,70,2.0,3.0,91,0.00,,,0.00,Wunderground v.1.15,2013-04-17 09:47:00,
2013-04-17 04:52:00,53.0,50.4,29.93,NNE,20,1.0,2.0,91,0.00,,,0.00,Wunderground v.1.15,2013-04-17 09:52:00,
2013-04-17 04:57:00,53.0,50.4,29.92,ESE,107,1.0,3.0,91,0.00,,,0.00,Wunderground v.1.15,2013-04-17 09:57:00,
2013-04-17 05:02:00,52.8,50.2,29.92,East,97,1.0,2.0,91,0.00,,,0.00,Wunderground v.1.15,2013-04-17 10:02:00,
2013-04-17 05:07:00,52.7,50.4,29.92,East,81,0.0,3.0,92,0.00,,,0.00,Wunderground v.1.15,2013-04-17 10:07:00,
2013-04-17 05:12:00,52.6,50.3,29.93,NE,56,0.0,3.0,92,0.00,,,0.00,Wunderground v.1.15,2013-04-17 10:12:00,
2013-04-17 05:17:00,52.6,50.3,29.92,ENE,71,1.0,3.0,92,0.00,,,0.00,Wunderground v.1.15,2013-04-17 10:17:00,
2013-04-17 05:22:00,52.6,50.3,29.92,ENE,73,1.0,2.0,92,0.00,,,0.00,Wunderground v.1.15,2013-04-17 10:22:00,
2013-04-17 05:27:00,52.6,50.3,29.92,ENE,71,1.0,2.0,92,0.00,,,0.00,Wunderground v.1.15,2013-04-17 10:27:00,
2013-04-17 05:32:00,52.6,50.3,29.92,ENE,68,1.0,2.0,92,0.00,,,0.00,Wunderground v.1.15,2013-04-17 10:32:00,
2013-04-17 05:37:00,52.6,50.3,29.92,NE,49,2.0,3.0,92,0.00,,,0.00,Wunderground v.1.15,2013-04-17 10:37:00,
2013-04-17 05:42:00,52.6,50.3,29.93,ENE,77,2.0,2.0,92,0.00,,,0.00,Wunderground v.1.15,2013-04-17 10:42:00,
2013-04-17 05:47:00,52.6,50.3,29.92,East,79,2.0,2.0,92,0.00,,,0.00,Wunderground v.1.15,2013-04-17 10:47:00,
2013-04-17 05:52:00,52.6,50.3,29.93,NE,49,2.0,2.0,92,0.00,,,0.00,Wunderground v.1.15,2013-04-17 10:52:00,
2013-04-17 05:57:00,52.5,50.2,29.92,East,85,0.0,2.0,92,0.00,,,0.00,Wunderground v.1.15,2013-04-17 10:57:00,
2013-04-17 06:02:00,52.4,50.1,29.92,East,84,0.0,0.0,92,0.00,,,0.00,Wunderground v.1.15,2013-04-17 11:02:00,
2013-04-17 06:07:00,52.3,50.0,29.92,East,94,0.0,0.0,92,0.00,,,0.00,Wunderground v.1.15,2013-04-17 11:07:00,
2013-04-17 06:12:00,52.3,50.3,29.92,East,101,0.0,0.0,93,0.00,,,0.00,Wunderground v.1.15,2013-04-17 11:12:00,
2013-04-17 06:17:00,52.3,50.3,29.92,East,101,0.0,0.0,93,0.00,,,0.00,Wunderground v.1.15,2013-04-17 11:17:00,
2013-04-17 06:22:00,52.2,50.2,29.92,East,100,0.0,0.0,93,0.00,,,0.00,Wunderground v.1.15,2013-04-17 11:22:00,
2013-04-17 06:27:00,52.1,50.1,29.92,East,100,0.0,0.0,93,0.00,,,0.00,Wunderground v.1.15,2013-04-17 11:27:00,
2013-04-17 06:32:00,52.0,50.0,29.92,ESE,102,0.0,0.0,93,0.00,,,0.00,Wunderground v.1.15,2013-04-17 11:32:00,
2013-04-17 06:37:00,52.0,50.0,29.92,ESE,105,0.0,0.0,93,0.00,,,0.00,Wunderground v.1.15,2013-04-17 11:37:00,
2013-04-17 06:42:00,52.0,50.0,29.92,ESE,105,0.0,0.0,93,0.00,,,0.00,Wunderground v.1.15,2013-04-17 11:42:00,
2013-04-17 06:47:00,52.0,50.3,29.92,SE,136,0.0,0.0,94,0.00,,,0.00,Wunderground v.1.15,2013-04-17 11:47:00,
2013-04-17 06:52:00,52.1,50.4,29.92,SE,135,0.0,0.0,94,0.00,,,0.00,Wunderground v.1.15,2013-04-17 11:52:00,
2013-04-17 06:57:00,52.1,50.4,29.92,ESE,120,1.0,1.0,94,0.00,,,0.00,Wunderground v.1.15,2013-04-17 11:57:00,
2013-04-17 07:02:00,52.2,50.5,29.93,ESE,120,0.0,0.0,94,0.00,,,0.00,Wunderground v.1.15,2013-04-17 12:02:00,
2013-04-17 07:07:00,52.4,50.7,29.93,ESE,120,0.0,0.0,94,0.00,,,0.00,Wunderground v.1.15,2013-04-17 12:07:00,
2013-04-17 07:12:00,52.5,50.8,29.92,East,101,1.0,2.0,94,0.00,,,0.00,Wunderground v.1.15,2013-04-17 12:12:00,
2013-04-17 07:17:00,52.8,51.1,29.93,NNW,348,0.0,2.0,94,0.00,,,0.00,Wunderground v.1.15,2013-04-17 12:17:00,
2013-04-17 07:22:00,53.0,51.0,29.92,NE,34,0.0,1.0,93,0.00,,,0.00,Wunderground v.1.15,2013-04-17 12:22:00,
2013-04-17 07:28:00,53.3,51.3,29.92,NE,43,1.0,1.0,93,0.00,,,0.00,Wunderground v.1.15,2013-04-17 12:28:00,
2013-04-17 07:33:00,53.6,51.6,29.92,ESE,104,1.0,2.0,93,0.00,,,0.00,Wunderground v.1.15,2013-04-17 12:33:00,
2013-04-17 07:38:00,53.8,51.8,29.92,East,101,2.0,3.0,93,0.00,,,0.00,Wunderground v.1.15,2013-04-17 12:38:00,
2013-04-17 07:43:00,54.1,51.8,29.92,ESE,121,0.0,1.0,92,0.00,,,0.00,Wunderground v.1.15,2013-04-17 12:43:00,
2013-04-17 07:48:00,54.4,52.1,29.91,ESE,121,0.0,1.0,92,0.00,,,0.00,Wunderground v.1.15,2013-04-17 12:48:00,
2013-04-17 07:53:00,54.6,52.0,29.91,ESE,121,0.0,0.0,91,0.00,,,0.00,Wunderground v.1.15,2013-04-17 12:53:00,
2013-04-17 07:58:00,55.0,52.4,29.91,ESE,121,0.0,0.0,91,0.00,,,0.00,Wunderground v.1.15,2013-04-17 12:58:00,
2013-04-17 08:03:00,55.4,52.5,29.91,ESE,121,0.0,0.0,90,0.00,,,0.00,Wunderground v.1.15,2013-04-17 13:03:00,
2013-04-17 08:08:00,55.6,52.7,29.91,ESE,121,0.0,0.0,90,0.00,,,0.00,Wunderground v.1.15,2013-04-17 13:08:00,
2013-04-17 08:13:00,56.6,53.7,29.91,ESE,121,0.0,0.0,90,0.00,,,0.00,Wunderground v.1.15,2013-04-17 13:13:00,
2013-04-17 08:18:00,57.0,53.5,29.91,ESE,121,0.0,0.0,88,0.00,,,0.00,Wunderground v.1.15,2013-04-17 13:18:00,
2013-04-17 08:23:00,57.3,53.5,29.91,East,84,1.0,3.0,87,0.00,,,0.00,Wunderground v.1.15,2013-04-17 13:23:00,
2013-04-17 08:28:00,57.7,53.5,29.91,SE,141,2.0,4.0,86,0.00,,,0.00,Wunderground v.1.15,2013-04-17 13:28:00,
2013-04-17 08:33:00,57.3,53.5,29.90,ENE,69,1.0,6.0,87,0.00,,,0.00,Wunderground v.1.15,2013-04-17 13:33:00,
2013-04-17 08:38:00,57.5,53.7,29.91,NE,39,0.0,6.0,87,0.00,,,0.00,Wunderground v.1.15,2013-04-17 13:38:00,
2013-04-17 08:43:00,58.2,54.3,29.90,East,82,0.0,3.0,87,0.00,,,0.00,Wunderground v.1.15,2013-04-17 13:43:00,
2013-04-17 08:48:00,59.0,54.8,29.90,North,1,0.0,3.0,86,0.00,,,0.00,Wunderground v.1.15,2013-04-17 13:48:00,
2013-04-17 08:53:00,60.3,55.8,29.90,ESE,121,0.0,0.0,85,0.00,,,0.00,Wunderground v.1.15,2013-04-17 13:53:00,
2013-04-17 08:58:00,61.1,55.9,29.90,SE,132,3.0,5.0,83,0.00,,,0.00,Wunderground v.1.15,2013-04-17 13:58:00,
2013-04-17 09:03:00,61.2,56.0,29.90,East,100,1.0,3.0,83,0.00,,,0.00,Wunderground v.1.15,2013-04-17 14:03:00,
2013-04-17 09:08:00,61.3,55.8,29.89,ESE,120,1.0,3.0,82,0.00,,,0.00,Wunderground v.1.15,2013-04-17 14:08:00,
2013-04-17 09:13:00,61.6,56.4,29.89,SE,139,0.0,2.0,83,0.00,,,0.00,Wunderground v.1.15,2013-04-17 14:13:00,
2013-04-17 09:18:00,62.2,57.0,29.89,ENE,58,1.0,2.0,83,0.00,,,0.00,Wunderground v.1.15,2013-04-17 14:18:00,
2013-04-17 09:23:00,62.8,57.2,29.89,WNW,292,0.0,2.0,82,0.00,,,0.00,Wunderground v.1.15,2013-04-17 14:23:00,
2013-04-17 09:28:00,63.0,57.1,29.89,West,281,0.0,2.0,81,0.00,,,0.00,Wunderground v.1.15,2013-04-17 14:28:00,
2013-04-17 09:33:00,63.7,57.4,29.89,East,81,3.0,3.0,80,0.00,,,0.00,Wunderground v.1.15,2013-04-17 14:33:00,
2013-04-17 09:38:00,63.8,57.5,29.89,East,83,1.0,3.0,80,0.00,,,0.00,Wunderground v.1.15,2013-04-17 14:38:00,
2013-04-17 09:43:00,63.8,57.5,29.89,ESE,108,0.0,2.0,80,0.00,,,0.00,Wunderground v.1.15,2013-04-17 14:43:00,
2013-04-17 09:48:00,63.9,57.6,29.89,SE,128,3.0,3.0,80,0.00,,,0.00,Wunderground v.1.15,2013-04-17 14:48:00,
2013-04-17 09:53:00,64.0,57.7,29.89,East,93,3.0,4.0,80,0.00,,,0.00,Wunderground v.1.15,2013-04-17 14:53:00,
2013-04-17 09:58:00,64.1,58.1,29.89,ESE,115,3.0,6.0,81,0.00,,,0.00,Wunderground v.1.15,2013-04-17 14:58:00,
2013-04-17 10:03:00,64.5,58.5,29.89,East,81,1.0,3.0,81,0.00,,,0.00,Wunderground v.1.15,2013-04-17 15:03:00,
2013-04-17 10:08:00,65.1,59.5,29.89,East,101,0.0,3.0,82,0.00,,,0.00,Wunderground v.1.15,2013-04-17 15:08:00,
2013-04-17 10:13:00,65.8,59.8,29.89,East,101,1.0,1.0,81,0.00,,,0.00,Wunderground v.1.15,2013-04-17 15:13:00,
2013-04-17 10:18:00,66.3,60.3,29.89,ESE,105,0.0,2.0,81,0.00,,,0.00,Wunderground v.1.15,2013-04-17 15:18:00,
2013-04-17 10:23:00,66.6,60.2,29.88,NE,35,1.0,1.0,80,0.00,,,0.00,Wunderground v.1.15,2013-04-17 15:23:00,
2013-04-17 10:28:00,67.3,60.9,29.88,West,277,0.0,2.0,80,0.00,,,0.00,Wunderground v.1.15,2013-04-17 15:28:00,
2013-04-17 10:33:00,68.7,63.0,29.88,NW,315,1.0,2.0,82,0.00,,,0.00,Wunderground v.1.15,2013-04-17 15:33:00,
2013-04-17 10:38:00,71.3,66.6,29.88,ESE,117,2.0,12.0,85,0.00,,,0.00,Wunderground v.1.15,2013-04-17 15:38:00,
2013-04-17 10:43:00,73.7,68.6,29.88,WSW,240,0.0,7.0,84,0.00,,,0.00,Wunderground v.1.15,2013-04-17 15:43:00,
2013-04-17 10:48:00,75.1,68.9,29.88,SW,214,1.0,7.0,81,0.00,,,0.00,Wunderground v.1.15,2013-04-17 15:48:00,
2013-04-17 10:53:00,75.8,68.8,29.88,WSW,248,1.0,7.0,79,0.00,,,0.00,Wunderground v.1.15,2013-04-17 15:53:00,
2013-04-17 10:58:00,76.3,68.9,29.88,WSW,239,5.0,7.0,78,0.00,,,0.00,Wunderground v.1.15,2013-04-17 15:58:00,
2013-04-17 11:03:00,76.6,68.8,29.87,SW,229,2.0,9.0,77,0.00,,,0.00,Wunderground v.1.15,2013-04-17 16:03:00,
2013-04-17 11:08:00,76.9,68.8,29.87,WNW,285,3.0,10.0,76,0.00,,,0.00,Wunderground v.1.15,2013-04-17 16:08:00,
2013-04-17 11:13:00,77.1,68.6,29.87,SW,227,5.0,10.0,75,0.00,,,0.00,Wunderground v.1.15,2013-04-17 16:13:00,
2013-04-17 11:18:00,77.2,68.7,29.87,West,278,3.0,10.0,75,0.00,,,0.00,Wunderground v.1.15,2013-04-17 16:18:00,
2013-04-17 11:23:00,77.4,68.5,29.86,SW,232,3.0,11.0,74,0.00,,,0.00,Wunderground v.1.15,2013-04-17 16:23:00,
2013-04-17 11:28:00,77.6,68.7,29.86,East,91,2.0,11.0,74,0.00,,,0.00,Wunderground v.1.15,2013-04-17 16:28:00,
2013-04-17 11:33:00,77.7,68.7,29.85,WSW,249,12.0,14.0,74,0.00,,,0.00,Wunderground v.1.15,2013-04-17 16:33:00,
2013-04-17 11:38:00,77.8,68.8,29.85,ESE,113,6.0,14.0,74,0.00,,,0.00,Wunderground v.1.15,2013-04-17 16:38:00,
2013-04-17 11:43:00,78.3,69.3,29.84,SW,233,1.0,8.0,74,0.00,,,0.00,Wunderground v.1.15,2013-04-17 16:43:00,
2013-04-17 11:48:00,79.1,69.7,29.84,NE,41,1.0,10.0,73,0.00,,,0.00,Wunderground v.1.15,2013-04-17 16:48:00,
2013-04-17 11:53:00,79.4,68.8,29.83,SW,228,1.0,11.0,70,0.00,,,0.00,Wunderground v.1.15,2013-04-17 16:53:00,
2013-04-17 11:58:00,79.7,69.0,29.83,WSW,256,1.0,11.0,70,0.00,,,0.00,Wunderground v.1.15,2013-04-17 16:58:00,
2013-04-17 12:03:00,80.5,69.8,29.83,North,349,1.0,4.0,70,0.00,,,0.00,Wunderground v.1.15,2013-04-17 17:03:00,
2013-04-17 12:08:00,80.9,68.9,29.83,West,260,2.0,4.0,67,0.00,,,0.00,Wunderground v.1.15,2013-04-17 17:08:00,
2013-04-17 12:13:00,81.0,69.0,29.83,SE,139,3.0,6.0,67,0.00,,,0.00,Wunderground v.1.15,2013-04-17 17:13:00,
2013-04-17 12:18:00,81.2,68.8,29.82,East,90,1.0,6.0,66,0.00,,,0.00,Wunderground v.1.15,2013-04-17 17:18:00,
2013-04-17 12:23:00,81.3,68.9,29.83,WNW,285,2.0,3.0,66,0.00,,,0.00,Wunderground v.1.15,2013-04-17 17:23:00,
2013-04-17 12:28:00,81.1,68.7,29.83,SW,219,2.0,5.0,66,0.00,,,0.00,Wunderground v.1.15,2013-04-17 17:28:00,
2013-04-17 12:33:00,80.7,67.8,29.82,SSW,211,4.0,8.0,65,0.00,,,0.00,Wunderground v.1.15,2013-04-17 17:33:00,
2013-04-17 12:38:00,80.3,68.3,29.82,West,274,2.0,13.0,67,0.00,,,0.00,Wunderground v.1.15,2013-04-17 17:38:00,
2013-04-17 12:43:00,80.1,68.2,29.82,ENE,77,2.0,8.0,67,0.00,,,0.00,Wunderground v.1.15,2013-04-17 17:43:00,
2013-04-17 12:48:00,80.4,68.4,29.82,SSE,149,3.0,9.0,67,0.00,,,0.00,Wunderground v.1.15,2013-04-17 17:48:00,
2013-04-17 12:53:00,80.3,68.3,29.82,SSW,212,4.0,11.0,67,0.00,,,0.00,Wunderground v.1.15,2013-04-17 17:53:00,
2013-04-17 12:58:00,80.3,68.3,29.82,West,263,4.0,11.0,67,0.00,,,0.00,Wunderground v.1.15,2013-04-17 17:58:00,
2013-04-17 13:03:00,80.5,68.5,29.81,West,262,2.0,7.0,67,0.00,,,0.00,Wunderground v.1.15,2013-04-17 18:03:00,
2013-04-17 13:08:00,80.9,68.5,29.81,SW,236,4.0,9.0,66,0.00,,,0.00,Wunderground v.1.15,2013-04-17 18:08:00,
2013-04-17 13:13:00,80.9,68.0,29.81,WSW,252,4.0,10.0,65,0.00,,,0.00,Wunderground v.1.15,2013-04-17 18:13:00,
2013-04-17 13:18:00,81.3,68.9,29.80,WSW,239,3.0,10.0,66,0.00,,,0.00,Wunderground v.1.15,2013-04-17 18:18:00,
2013-04-17 13:23:00,81.2,68.8,29.80,SW,234,2.0,7.0,66,0.00,,,0.00,Wunderground v.1.15,2013-04-17 18:23:00,
2013-04-17 13:28:00,81.2,68.3,29.80,WNW,295,6.0,8.0,65,0.00,,,0.00,Wunderground v.1.15,2013-04-17 18:28:00,
2013-04-17 13:33:00,81.4,68.5,29.79,SW,224,4.0,6.0,65,0.00,,,0.00,Wunderground v.1.15,2013-04-17 18:33:00,
2013-04-17 13:38:00,81.2,68.3,29.79,SW,232,3.0,6.0,65,0.00,,,0.00,Wunderground v.1.15,2013-04-17 18:38:00,
2013-04-17 13:43:00,81.3,68.0,29.79,WSW,249,3.0,9.0,64,0.00,,,0.00,Wunderground v.1.15,2013-04-17 18:43:00,
2013-04-17 13:48:00,81.1,67.8,29.78,SW,219,3.0,11.0,64,0.00,,,0.00,Wunderground v.1.15,2013-04-17 18:48:00,
2013-04-17 13:53:00,81.1,68.2,29.78,SW,236,5.0,10.0,65,0.00,,,0.00,Wunderground v.1.15,2013-04-17 18:53:00,
2013-04-17 13:58:00,81.0,68.1,29.78,WSW,249,3.0,10.0,65,0.00,,,0.00,Wunderground v.1.15,2013-04-17 18:58:00,
2013-04-17 14:03:00,81.1,68.2,29.78,East,100,3.0,8.0,65,0.00,,,0.00,Wunderground v.1.15,2013-04-17 19:03:00,
2013-04-17 14:08:00,81.0,67.7,29.78,ESE,114,5.0,8.0,64,0.00,,,0.00,Wunderground v.1.15,2013-04-17 19:08:00,
2013-04-17 14:13:00,80.8,67.9,29.78,SW,222,3.0,7.0,65,0.00,,,0.00,Wunderground v.1.15,2013-04-17 19:13:00,
2013-04-17 14:18:00,80.6,67.7,29.78,East,83,3.0,10.0,65,0.00,,,0.00,Wunderground v.1.15,2013-04-17 19:18:00,
2013-04-17 14:23:00,80.5,68.1,29.77,NE,49,2.0,7.0,66,0.00,,,0.00,Wunderground v.1.15,2013-04-17 19:23:00,
2013-04-17 14:28:00,80.8,68.4,29.77,West,281,2.0,7.0,66,0.00,,,0.00,Wunderground v.1.15,2013-04-17 19:28:00,
2013-04-17 14:33:00,81.0,68.1,29.77,SW,219,4.0,4.0,65,0.00,,,0.00,Wunderground v.1.15,2013-04-17 19:33:00,
2013-04-17 14:38:00,81.0,67.7,29.76,WNW,290,1.0,7.0,64,0.00,,,0.00,Wunderground v.1.15,2013-04-17 19:38:00,
2013-04-17 14:43:00,80.8,67.5,29.76,WSW,246,5.0,6.0,64,0.00,,,0.00,Wunderground v.1.15,2013-04-17 19:43:00,
2013-04-17 14:48:00,81.0,68.1,29.76,ESE,108,4.0,7.0,65,0.00,,,0.00,Wunderground v.1.15,2013-04-17 19:48:00,
2013-04-17 14:53:00,81.8,67.5,29.75,ENE,64,2.0,11.0,62,0.00,,,0.00,Wunderground v.1.15,2013-04-17 19:53:00,
2013-04-17 14:58:00,82.3,67.5,29.75,ESE,107,2.0,11.0,61,0.00,,,0.00,Wunderground v.1.15,2013-04-17 19:58:00,
2013-04-17 15:03:00,82.4,68.1,29.75,ESE,112,2.0,6.0,62,0.00,,,0.00,Wunderground v.1.15,2013-04-17 20:03:00,
2013-04-17 15:08:00,82.8,67.0,29.74,East,96,7.0,9.0,59,0.00,,,0.00,Wunderground v.1.15,2013-04-17 20:08:00,
2013-04-17 15:13:00,83.4,68.1,29.74,ESE,121,4.0,6.0,60,0.00,,,0.00,Wunderground v.1.15,2013-04-17 20:13:00,
2013-04-17 15:18:00,83.7,67.8,29.74,SSW,211,2.0,7.0,59,0.00,,,0.00,Wunderground v.1.15,2013-04-17 20:18:00,
2013-04-17 15:23:00,83.7,67.8,29.74,SE,124,3.0,7.0,59,0.00,,,0.00,Wunderground v.1.15,2013-04-17 20:23:00,
2013-04-17 15:28:00,83.6,68.2,29.73,East,90,2.0,12.0,60,0.00,,,0.00,Wunderground v.1.15,2013-04-17 20:28:00,
2013-04-17 15:33:00,83.8,67.9,29.73,WSW,255,6.0,9.0,59,0.00,,,0.00,Wunderground v.1.15,2013-04-17 20:33:00,
2013-04-17 15:38:00,83.8,67.4,29.73,SSW,200,3.0,11.0,58,0.00,,,0.00,Wunderground v.1.15,2013-04-17 20:38:00,
2013-04-17 15:43:00,83.8,66.9,29.73,SSW,193,3.0,13.0,57,0.00,,,0.00,Wunderground v.1.15,2013-04-17 20:43:00,
2013-04-17 15:48:00,83.3,67.0,29.73,ESE,114,1.0,13.0,58,0.00,,,0.00,Wunderground v.1.15,2013-04-17 20:48:00,
2013-04-17 15:53:00,82.9,66.6,29.73,SW,236,2.0,8.0,58,0.00,,,0.00,Wunderground v.1.15,2013-04-17 20:53:00,
2013-04-17 15:58:00,82.7,67.4,29.72,SW,233,4.0,8.0,60,0.00,,,0.00,Wunderground v.1.15,2013-04-17 20:58:00,
2013-04-17 16:03:00,82.7,66.4,29.72,SW,232,2.0,9.0,58,0.00,,,0.00,Wunderground v.1.15,2013-04-17 21:03:00,
2013-04-17 16:08:00,82.7,66.9,29.71,ENE,77,2.0,9.0,59,0.00,,,0.00,Wunderground v.1.15,2013-04-17 21:08:00,
2013-04-17 16:13:00,83.3,67.5,29.71,WSW,242,6.0,6.0,59,0.00,,,0.00,Wunderground v.1.15,2013-04-17 21:13:00,
2013-04-17 16:18:00,83.9,67.5,29.70,SW,225,7.0,8.0,58,0.00,,,0.00,Wunderground v.1.15,2013-04-17 21:18:00,
2013-04-17 16:23:00,84.1,67.7,29.70,West,260,6.0,7.0,58,0.00,,,0.00,Wunderground v.1.15,2013-04-17 21:23:00,
2013-04-17 16:28:00,84.4,67.0,29.70,SW,219,7.0,12.0,56,0.00,,,0.00,Wunderground v.1.15,2013-04-17 21:28:00,
2013-04-17 16:33:00,83.7,66.3,29.70,SW,232,7.0,8.0,56,0.00,,,0.00,Wunderground v.1.15,2013-04-17 21:33:00,
2013-04-17 16:38:00,83.0,66.2,29.70,WSW,252,4.0,8.0,57,0.00,,,0.00,Wunderground v.1.15,2013-04-17 21:38:00,
2013-04-17 16:44:00,82.6,66.3,29.69,SW,229,6.0,12.0,58,0.00,,,0.00,Wunderground v.1.15,2013-04-17 21:44:00,
2013-04-17 16:49:00,82.5,66.2,29.69,SW,235,6.0,12.0,58,0.00,,,0.00,Wunderground v.1.15,2013-04-17 21:49:00,
2013-04-17 16:53:00,82.3,66.0,29.69,SW,225,6.0,12.0,58,0.00,,,0.00,Wunderground v.1.15,2013-04-17 21:53:00,
2013-04-17 16:59:00,82.3,66.0,29.68,ESE,105,3.0,12.0,58,0.00,,,0.00,Wunderground v.1.15,2013-04-17 21:59:00,
2013-04-17 17:03:00,83.1,67.3,29.68,SW,235,2.0,10.0,59,0.00,,,0.00,Wunderground v.1.15,2013-04-17 22:03:00,
2013-04-17 17:09:00,83.6,66.8,29.68,East,101,5.0,10.0,57,0.00,,,0.00,Wunderground v.1.15,2013-04-17 22:09:00,
2013-04-17 17:13:00,83.7,66.8,29.68,WSW,239,1.0,8.0,57,0.00,,,0.00,Wunderground v.1.15,2013-04-17 22:13:00,
2013-04-17 17:18:00,83.8,66.4,29.68,SSW,211,2.0,8.0,56,0.00,,,0.00,Wunderground v.1.15,2013-04-17 22:18:00,
2013-04-17 17:23:00,83.5,66.2,29.68,SW,231,4.0,10.0,56,0.00,,,0.00,Wunderground v.1.15,2013-04-17 22:23:00,
2013-04-17 17:28:00,83.4,66.6,29.68,West,273,4.0,10.0,57,0.00,,,0.00,Wunderground v.1.15,2013-04-17 22:28:00,
2013-04-17 17:33:00,83.4,66.6,29.68,ENE,73,3.0,10.0,57,0.00,,,0.00,Wunderground v.1.15,2013-04-17 22:33:00,
2013-04-17 17:38:00,83.4,66.6,29.68,East,91,4.0,10.0,57,0.00,,,0.00,Wunderground v.1.15,2013-04-17 22:38:00,
2013-04-17 17:44:00,83.2,66.4,29.68,East,83,2.0,6.0,57,0.00,,,0.00,Wunderground v.1.15,2013-04-17 22:44:00,
2013-04-17 17:49:00,83.1,66.3,29.68,SE,127,1.0,9.0,57,0.00,,,0.00,Wunderground v.1.15,2013-04-17 22:49:00,
2013-04-17 17:54:00,83.0,66.7,29.67,SW,231,3.0,6.0,58,0.00,,,0.00,Wunderground v.1.15,2013-04-17 22:54:00,
2013-04-17 17:59:00,82.9,66.1,29.67,WSW,246,1.0,6.0,57,0.00,,,0.00,Wunderground v.1.15,2013-04-17 22:59:00,
2013-04-17 18:04:00,82.7,66.4,29.68,ESE,114,6.0,14.0,58,0.00,,,0.00,Wunderground v.1.15,2013-04-17 23:04:00,
2013-04-17 18:09:00,82.4,66.1,29.68,ESE,109,3.0,14.0,58,0.00,,,0.00,Wunderground v.1.15,2013-04-17 23:09:00,
2013-04-17 18:14:00,82.5,66.2,29.68,West,265,3.0,11.0,58,0.00,,,0.00,Wunderground v.1.15,2013-04-17 23:14:00,